createdAt,value
2023-05-18T00:01:43.408Z,5.97
2023-05-18T00:05:04.940Z,9.77
2023-05-18T00:08:26.318Z,8.07
2023-05-18T00:11:47.756Z,7.78
2023-05-18T00:15:10.106Z,5.28
2023-05-18T00:18:34.367Z,6.30
2023-05-18T00:21:56.108Z,7.28
2023-05-18T00:25:17.540Z,7.90
2023-05-18T00:28:38.859Z,7.38
2023-05-18T00:32:00.293Z,7.60
2023-05-18T00:35:23.181Z,7.00
2023-05-18T00:38:44.548Z,5.90
2023-05-18T00:42:06.634Z,7.82
2023-05-18T00:45:28.375Z,7.32
2023-05-18T00:48:50.929Z,6.95
2023-05-18T00:52:14.965Z,6.57
2023-05-18T00:55:37.517Z,6.43
2023-05-18T00:58:59.355Z,6.90
2023-05-18T01:02:23.900Z,8.57
2023-05-18T01:05:45.243Z,10.25
2023-05-18T01:09:10.444Z,8.13
2023-05-18T01:12:47.235Z,7.00
2023-05-18T01:16:14.333Z,8.63
2023-05-18T01:19:57.256Z,6.95
2023-05-18T01:23:55.081Z,6.28
2023-05-18T01:27:24.754Z,8.73
2023-05-18T01:30:49.118Z,7.72
2023-05-18T01:34:10.640Z,7.53
2023-05-18T01:37:31.905Z,7.88
2023-05-18T01:40:58.002Z,5.72
2023-05-18T01:44:28.319Z,5.18
2023-05-18T01:47:56.913Z,6.35
2023-05-18T01:51:31.404Z,8.88
2023-05-18T01:54:58.908Z,6.30
2023-05-18T01:58:24.088Z,10.05
2023-05-18T02:01:47.224Z,9.43
2023-05-18T02:05:12.524Z,8.07
2023-05-18T02:08:34.014Z,5.90
2023-05-18T02:11:55.625Z,6.75
2023-05-18T02:15:17.167Z,7.40
2023-05-18T02:18:40.010Z,8.95
2023-05-18T02:22:01.340Z,6.75
2023-05-18T02:25:22.807Z,7.15
2023-05-18T02:28:44.065Z,4.90
2023-05-18T02:32:06.420Z,9.90
2023-05-18T02:35:29.416Z,8.45
2023-05-18T02:38:50.800Z,8.32
2023-05-18T02:42:13.051Z,9.77
2023-05-18T02:45:34.480Z,7.18
2023-05-18T02:48:55.769Z,5.72
2023-05-18T02:52:18.580Z,7.50
2023-05-18T02:55:41.212Z,7.10
2023-05-18T02:59:02.841Z,9.68
2023-05-18T03:02:24.324Z,6.68
2023-05-18T03:05:45.899Z,6.00
2023-05-18T03:09:08.693Z,5.82
2023-05-18T03:12:30.185Z,7.70
2023-05-18T03:15:52.112Z,7.13
2023-05-18T03:19:16.097Z,7.18
2023-05-18T03:22:37.589Z,8.88
2023-05-18T03:26:03.960Z,5.72
2023-05-18T03:29:25.628Z,7.45
2023-05-18T03:32:47.804Z,6.97
2023-05-18T03:36:09.758Z,9.52
2023-05-18T03:39:31.185Z,7.97
2023-05-18T03:42:53.857Z,21.20
2023-05-18T03:46:15.203Z,20.38
2023-05-18T03:49:37.176Z,16.08
2023-05-18T03:52:59.246Z,8.48
2023-05-18T03:56:21.163Z,8.60
2023-05-18T03:59:43.902Z,8.75
2023-05-18T04:03:05.571Z,11.55
2023-05-18T04:06:27.298Z,9.02
2023-05-18T04:09:49.002Z,10.65
2023-05-18T04:13:10.388Z,7.05
2023-05-18T04:16:33.337Z,7.85
2023-05-18T04:19:54.747Z,6.18
2023-05-18T04:23:16.986Z,9.15
2023-05-18T04:26:38.639Z,8.45
2023-05-18T04:30:00.144Z,13.00
2023-05-18T04:33:24.224Z,7.55
2023-05-18T04:36:46.341Z,8.20
2023-05-18T04:40:08.365Z,8.73
2023-05-18T04:43:29.746Z,9.00
2023-05-18T04:46:52.722Z,4.57
2023-05-18T04:50:16.543Z,10.43
2023-05-18T04:53:39.668Z,6.32
2023-05-18T04:57:02.432Z,9.68
2023-05-18T05:00:24.321Z,13.27
2023-05-18T05:03:46.254Z,9.60
2023-05-18T05:07:09.287Z,10.50
2023-05-18T05:10:30.618Z,8.23
2023-05-18T05:13:51.970Z,6.57
2023-05-18T05:17:13.652Z,10.88
2023-05-18T05:20:37.478Z,7.35
2023-05-18T05:24:01.804Z,10.63
2023-05-18T05:27:24.372Z,9.73
2023-05-18T05:30:45.943Z,8.88
2023-05-18T05:34:07.370Z,10.10
2023-05-18T05:37:28.813Z,10.30
2023-05-18T05:40:51.643Z,7.75
2023-05-18T05:44:13.138Z,7.88
2023-05-18T05:47:34.614Z,10.40
2023-05-18T05:50:56.307Z,8.15
2023-05-18T05:54:17.819Z,11.15
2023-05-18T05:57:42.985Z,10.25
2023-05-18T06:01:05.632Z,10.35
2023-05-18T06:04:27.035Z,11.95
2023-05-18T06:07:48.639Z,10.85
2023-05-18T06:11:11.388Z,10.77
2023-05-18T06:14:34.488Z,10.43
2023-05-18T06:17:55.931Z,9.80
2023-05-18T06:21:17.477Z,10.05
2023-05-18T06:24:38.915Z,14.02
2023-05-18T06:28:00.379Z,12.35
2023-05-18T06:31:28.215Z,15.27
2023-05-18T06:34:53.656Z,10.75
2023-05-18T06:38:16.108Z,12.98
2023-05-18T06:41:37.645Z,12.82
2023-05-18T06:45:00.271Z,16.20
2023-05-18T06:48:23.586Z,9.95
2023-05-18T06:51:45.828Z,11.52
2023-05-18T06:55:07.863Z,16.00
2023-05-18T06:58:29.332Z,15.30
2023-05-18T07:01:50.687Z,14.32
2023-05-18T07:05:13.605Z,17.38
2023-05-18T07:08:37.112Z,16.23
2023-05-18T07:11:58.657Z,14.48
2023-05-18T07:15:20.103Z,15.85
2023-05-18T07:18:42.351Z,16.85
2023-05-18T07:22:05.382Z,19.92
2023-05-18T07:25:26.639Z,16.52
2023-05-18T07:28:48.776Z,18.92
2023-05-18T07:32:10.071Z,23.27
2023-05-18T07:35:31.700Z,17.20
2023-05-18T07:38:56.945Z,16.15
2023-05-18T07:42:18.306Z,17.38
2023-05-18T07:45:39.521Z,18.00
2023-05-18T07:49:01.746Z,14.65
2023-05-18T07:52:23.047Z,20.38
2023-05-18T07:55:46.918Z,14.70
2023-05-18T07:59:08.462Z,14.93
2023-05-18T08:02:32.886Z,18.23
2023-05-18T08:05:55.287Z,15.93
2023-05-18T08:09:16.764Z,17.27
2023-05-18T08:12:39.529Z,18.42
2023-05-18T08:16:11.233Z,16.65
2023-05-18T08:19:33.973Z,18.83
2023-05-18T08:22:55.248Z,18.48
2023-05-18T08:26:16.779Z,17.20
2023-05-18T08:29:39.552Z,22.80
2023-05-18T08:33:01.758Z,17.02
2023-05-18T08:36:23.462Z,25.98
2023-05-18T08:39:46.264Z,17.15
2023-05-18T08:43:19.175Z,17.27
2023-05-18T08:46:48.467Z,17.70
2023-05-18T08:50:16.083Z,16.05
2023-05-18T08:53:41.631Z,19.25
2023-05-18T08:57:05.952Z,21.13
2023-05-18T09:00:30.105Z,18.55
2023-05-18T09:03:53.783Z,16.95
2023-05-18T09:07:15.849Z,18.35
2023-05-18T09:10:40.317Z,15.82
2023-05-18T09:14:03.999Z,16.08
2023-05-18T09:17:26.265Z,14.05
2023-05-18T09:20:50.520Z,19.35
2023-05-18T09:24:11.995Z,25.52
2023-05-18T09:27:33.392Z,19.40
2023-05-18T09:30:54.955Z,17.88
2023-05-18T09:34:16.491Z,15.82
2023-05-18T09:37:42.630Z,13.48
2023-05-18T09:41:04.591Z,13.27
2023-05-18T09:44:31.868Z,13.68
2023-05-18T09:47:53.228Z,12.82
2023-05-18T09:51:17.025Z,13.43
2023-05-18T09:54:43.245Z,13.13
2023-05-18T09:58:04.857Z,12.25
2023-05-18T10:01:26.892Z,11.93
2023-05-18T10:04:57.667Z,15.18
2023-05-18T10:08:19.274Z,13.55
2023-05-18T10:11:44.256Z,11.65
2023-05-18T10:15:06.293Z,11.68
2023-05-18T10:18:29.452Z,11.90
2023-05-18T10:21:52.884Z,10.38
2023-05-18T10:25:19.722Z,12.10
2023-05-18T10:28:44.211Z,11.70
2023-05-18T10:32:08.009Z,10.93
2023-05-18T10:35:30.417Z,10.05
2023-05-18T10:38:53.407Z,9.73
2023-05-18T10:42:17.428Z,9.93
2023-05-18T10:45:42.745Z,8.95
2023-05-18T10:49:05.823Z,9.20
2023-05-18T10:52:31.931Z,9.93
2023-05-18T10:55:54.507Z,10.77
2023-05-18T10:59:20.383Z,9.45
2023-05-18T11:02:45.814Z,8.80
2023-05-18T11:06:10.290Z,12.15
2023-05-18T11:09:37.690Z,9.73
2023-05-18T11:13:07.269Z,8.90
2023-05-18T11:17:20.395Z,9.85
2023-05-18T11:21:19.775Z,11.35
2023-05-18T11:25:09.832Z,9.40
2023-05-18T11:28:33.726Z,9.65
2023-05-18T11:31:55.811Z,10.65
2023-05-18T11:35:52.630Z,12.45
2023-05-18T11:39:24.387Z,10.65
2023-05-18T11:42:59.170Z,10.93
2023-05-18T11:46:22.560Z,17.17
2023-05-18T11:49:47.576Z,14.70
2023-05-18T11:53:16.476Z,11.02
2023-05-18T11:56:39.096Z,11.65
2023-05-18T12:00:08.058Z,10.43
2023-05-18T12:03:31.474Z,15.77
2023-05-18T12:06:55.065Z,11.85
2023-05-18T12:10:17.254Z,10.73
2023-05-18T12:13:42.887Z,10.70
2023-05-18T12:17:07.970Z,13.60
2023-05-18T12:20:49.928Z,10.07
2023-05-18T12:24:12.601Z,14.32
2023-05-18T12:27:38.997Z,12.88
2023-05-18T12:31:07.460Z,14.18
2023-05-18T12:34:29.669Z,11.38
2023-05-18T12:37:51.597Z,12.85
2023-05-18T12:41:22.686Z,10.63
2023-05-18T12:44:45.066Z,11.85
2023-05-18T12:48:07.657Z,14.93
2023-05-18T12:51:33.373Z,32.38
2023-05-18T12:55:00.259Z,22.50
2023-05-18T12:58:23.334Z,12.23
2023-05-18T13:01:45.003Z,12.25
2023-05-18T13:05:08.833Z,10.65
2023-05-18T13:08:32.672Z,9.70
2023-05-18T13:12:07.383Z,11.32
2023-05-18T13:15:38.658Z,19.02
2023-05-18T13:19:02.125Z,13.00
2023-05-18T13:22:23.948Z,11.57
2023-05-18T13:25:46.392Z,10.00
2023-05-18T13:29:09.878Z,11.25
2023-05-18T13:32:32.657Z,10.07
2023-05-18T13:35:54.023Z,14.75
2023-05-18T13:39:15.272Z,16.98
2023-05-18T13:42:36.486Z,9.73
2023-05-18T13:45:58.402Z,9.77
2023-05-18T13:49:21.169Z,8.23
2023-05-18T13:52:42.531Z,8.20
2023-05-18T13:56:03.864Z,8.52
2023-05-18T13:59:25.153Z,6.63
2023-05-18T14:02:46.656Z,8.90
2023-05-18T14:06:10.110Z,7.45
2023-05-18T14:09:31.493Z,9.05
2023-05-18T14:12:52.773Z,6.72
2023-05-18T14:16:14.134Z,7.05
2023-05-18T14:19:36.182Z,6.85
2023-05-18T14:23:00.303Z,8.18
2023-05-18T14:26:22.463Z,8.20
2023-05-18T14:29:43.819Z,8.13
2023-05-18T14:33:05.287Z,9.85
2023-05-18T14:36:27.076Z,7.05
2023-05-18T14:39:49.825Z,7.28
2023-05-18T14:43:11.497Z,7.55
2023-05-18T14:46:32.801Z,6.22
2023-05-18T14:49:54.371Z,7.45
2023-05-18T14:53:15.656Z,8.20
2023-05-18T14:56:38.315Z,8.20
2023-05-18T15:00:00.573Z,6.97
2023-05-18T15:03:22.057Z,7.95
2023-05-18T15:06:43.432Z,9.90
2023-05-18T15:10:04.940Z,9.65
2023-05-18T15:13:27.598Z,7.93
2023-05-18T15:16:49.151Z,10.18
2023-05-18T15:20:10.979Z,6.25
2023-05-18T15:23:32.299Z,7.13
2023-05-18T15:26:54.012Z,6.20
2023-05-18T15:30:16.954Z,7.25
2023-05-18T15:33:42.164Z,6.32
2023-05-18T15:37:03.626Z,7.20
2023-05-18T15:40:25.342Z,5.15
2023-05-18T15:43:46.827Z,6.28
2023-05-18T15:47:09.859Z,6.43
2023-05-18T15:50:31.423Z,6.18
2023-05-18T15:53:52.999Z,12.50
2023-05-18T15:57:14.425Z,8.75
2023-05-18T16:00:35.979Z,6.40
2023-05-18T16:03:58.975Z,9.20
2023-05-18T16:07:20.723Z,5.90
2023-05-18T16:10:42.273Z,5.05
2023-05-18T16:14:03.810Z,6.05
2023-05-18T16:17:25.319Z,6.15
2023-05-18T16:20:48.325Z,7.68
2023-05-18T16:24:10.151Z,4.47
2023-05-18T16:27:31.665Z,6.82
2023-05-18T16:30:52.982Z,8.50
2023-05-18T16:34:14.321Z,8.90
2023-05-18T16:37:37.293Z,14.43
2023-05-18T16:40:59.241Z,7.20
2023-05-18T16:44:20.980Z,7.60
2023-05-18T16:47:42.562Z,4.82
2023-05-18T16:51:07.306Z,5.50
2023-05-18T16:54:30.995Z,4.40
2023-05-18T16:57:53.811Z,5.07
2023-05-18T17:01:27.457Z,7.35
2023-05-18T17:04:50.676Z,8.60
2023-05-18T17:08:12.752Z,4.90
2023-05-18T17:11:41.001Z,4.57
2023-05-18T17:15:02.979Z,8.05
2023-05-18T17:18:24.553Z,6.55
2023-05-18T17:21:46.586Z,8.77
2023-05-18T17:25:09.442Z,5.40
2023-05-18T17:28:32.273Z,6.88
2023-05-18T17:31:53.920Z,7.00
2023-05-18T17:35:15.820Z,5.82
2023-05-18T17:38:37.145Z,8.77
2023-05-18T17:42:00.234Z,6.43
2023-05-18T17:45:24.760Z,6.55
2023-05-18T17:48:46.431Z,4.97
2023-05-18T17:52:08.195Z,6.50
2023-05-18T17:55:29.561Z,9.98
2023-05-18T17:58:50.976Z,18.05
2023-05-18T18:02:14.328Z,9.93
2023-05-18T18:05:35.791Z,9.40
2023-05-18T18:08:57.967Z,5.35
2023-05-18T18:12:20.236Z,5.90
2023-05-18T18:15:41.643Z,6.97
2023-05-18T18:19:05.320Z,5.05
2023-05-18T18:22:26.758Z,5.93
2023-05-18T18:25:50.137Z,4.78
2023-05-18T18:29:11.494Z,6.90
2023-05-18T18:32:32.868Z,6.90
2023-05-18T18:35:56.131Z,6.05
2023-05-18T18:39:17.710Z,5.97
2023-05-18T18:42:39.225Z,11.27
2023-05-18T18:46:01.738Z,11.88
2023-05-18T18:49:31.581Z,6.28
2023-05-18T18:52:54.406Z,8.13
2023-05-18T18:56:15.831Z,5.65
2023-05-18T18:59:37.105Z,6.97
2023-05-18T19:03:03.343Z,5.72
2023-05-18T19:06:27.304Z,7.88
2023-05-18T19:09:50.590Z,6.13
2023-05-18T19:13:11.910Z,6.47
2023-05-18T19:16:37.910Z,7.68
2023-05-18T19:19:59.234Z,11.15
2023-05-18T19:23:20.567Z,9.95
2023-05-18T19:26:43.278Z,6.60
2023-05-18T19:30:05.491Z,9.65
2023-05-18T19:33:26.905Z,5.45
2023-05-18T19:36:48.301Z,5.70
2023-05-18T19:40:10.307Z,5.30
2023-05-18T19:43:33.022Z,5.65
2023-05-18T19:46:54.381Z,7.32
2023-05-18T19:50:15.633Z,10.57
2023-05-18T19:53:36.968Z,8.00
2023-05-18T19:56:58.321Z,7.88
2023-05-18T20:00:20.975Z,7.25
2023-05-18T20:03:43.536Z,5.88
2023-05-18T20:07:05.317Z,10.18
2023-05-18T20:10:26.677Z,10.35
2023-05-18T20:13:48.031Z,8.52
2023-05-18T20:17:10.886Z,6.38
2023-05-18T20:20:33.549Z,7.70
2023-05-18T20:23:55.187Z,9.05
2023-05-18T20:27:17.122Z,8.82
2023-05-18T20:30:38.532Z,6.88
2023-05-18T20:34:01.606Z,6.55
2023-05-18T20:37:25.345Z,8.82
2023-05-18T20:40:49.136Z,5.60
2023-05-18T20:44:11.308Z,6.30
2023-05-18T20:47:33.247Z,6.68
2023-05-18T20:50:56.433Z,6.07
2023-05-18T20:54:18.979Z,7.57
2023-05-18T20:57:40.779Z,10.00
2023-05-18T21:01:06.956Z,8.38
2023-05-18T21:04:28.493Z,6.38
2023-05-18T21:07:51.732Z,7.45
2023-05-18T21:11:13.029Z,7.50
2023-05-18T21:14:34.396Z,7.65
2023-05-18T21:17:55.784Z,6.95
2023-05-18T21:21:17.458Z,7.35
2023-05-18T21:24:40.315Z,9.40
2023-05-18T21:28:01.701Z,8.07
2023-05-18T21:31:24.041Z,7.40
2023-05-18T21:34:48.117Z,7.35
2023-05-18T21:38:09.497Z,7.82
2023-05-18T21:41:32.399Z,10.38
2023-05-18T21:44:53.690Z,8.23
2023-05-18T21:48:14.964Z,9.85
2023-05-18T21:51:36.674Z,7.45
2023-05-18T21:54:58.168Z,7.45
2023-05-18T21:58:21.462Z,7.88
2023-05-18T22:01:42.704Z,7.45
2023-05-18T22:05:04.323Z,7.32
2023-05-18T22:08:25.585Z,8.90
2023-05-18T22:11:47.170Z,10.00
2023-05-18T22:15:10.742Z,7.18
2023-05-18T22:18:32.250Z,7.05
2023-05-18T22:21:54.032Z,6.30
2023-05-18T22:25:16.504Z,7.78
2023-05-18T22:28:37.851Z,6.70
2023-05-18T22:32:00.663Z,6.88
2023-05-18T22:35:21.938Z,7.63
2023-05-18T22:38:43.992Z,7.40
2023-05-18T22:42:05.351Z,7.43
2023-05-18T22:45:26.792Z,7.40
2023-05-18T22:48:49.553Z,7.15
2023-05-18T22:52:10.766Z,7.05
2023-05-18T22:55:32.875Z,7.85
2023-05-18T22:58:54.160Z,6.05
2023-05-18T23:02:15.442Z,8.40
2023-05-18T23:05:41.274Z,7.80
2023-05-18T23:09:02.628Z,7.20
2023-05-18T23:12:23.951Z,7.50
2023-05-18T23:15:47.776Z,7.47
2023-05-18T23:19:09.682Z,6.95
2023-05-18T23:22:32.557Z,7.00
2023-05-18T23:25:53.856Z,7.13
2023-05-18T23:29:15.104Z,7.18
2023-05-18T23:32:36.787Z,8.85
2023-05-18T23:36:02.531Z,8.98
2023-05-18T23:39:27.960Z,7.28
2023-05-18T23:42:53.056Z,6.97
2023-05-18T23:46:17.170Z,8.20
2023-05-18T23:49:39.161Z,7.43
2023-05-18T23:53:04.463Z,6.85
2023-05-18T23:56:29.795Z,7.57
2023-05-18T23:59:51.685Z,8.23
